sensor_id;sensor_type;location;lat;lon;timestamp;temperature;humidity
46366;DHT22;32073;49.166;8.076;2023-04-24T00:01:26;15.60;52.00
46366;DHT22;32073;49.166;8.076;2023-04-24T00:05:27;15.70;52.20
46366;DHT22;32073;49.166;8.076;2023-04-24T00:09:27;15.70;52.20
46366;DHT22;32073;49.166;8.076;2023-04-24T00:13:28;15.70;52.30
46366;DHT22;32073;49.166;8.076;2023-04-24T00:17:29;15.70;52.30
46366;DHT22;32073;49.166;8.076;2023-04-24T00:21:30;15.80;52.40
46366;DHT22;32073;49.166;8.076;2023-04-24T00:25:32;15.70;52.30
46366;DHT22;32073;49.166;8.076;2023-04-24T00:29:33;15.70;52.40
46366;DHT22;32073;49.166;8.076;2023-04-24T00:33:34;15.70;52.50
46366;DHT22;32073;49.166;8.076;2023-04-24T00:37:34;15.70;52.60
46366;DHT22;32073;49.166;8.076;2023-04-24T00:41:36;15.70;52.50
46366;DHT22;32073;49.166;8.076;2023-04-24T00:45:36;15.70;52.60
46366;DHT22;32073;49.166;8.076;2023-04-24T00:49:37;15.60;52.60
46366;DHT22;32073;49.166;8.076;2023-04-24T00:53:38;15.60;52.60
46366;DHT22;32073;49.166;8.076;2023-04-24T00:57:39;15.50;52.60
46366;DHT22;32073;49.166;8.076;2023-04-24T01:01:40;15.50;52.70
46366;DHT22;32073;49.166;8.076;2023-04-24T01:05:43;15.40;52.80
46366;DHT22;32073;49.166;8.076;2023-04-24T01:09:45;15.40;53.00
46366;DHT22;32073;49.166;8.076;2023-04-24T01:13:48;15.30;53.20
46366;DHT22;32073;49.166;8.076;2023-04-24T01:17:49;15.30;53.30
46366;DHT22;32073;49.166;8.076;2023-04-24T01:21:53;15.30;53.50
46366;DHT22;32073;49.166;8.076;2023-04-24T01:25:55;15.30;53.70
46366;DHT22;32073;49.166;8.076;2023-04-24T01:29:55;15.40;53.80
46366;DHT22;32073;49.166;8.076;2023-04-24T01:33:56;15.40;53.80
46366;DHT22;32073;49.166;8.076;2023-04-24T01:37:57;15.40;53.80
46366;DHT22;32073;49.166;8.076;2023-04-24T01:41:58;15.40;53.70
46366;DHT22;32073;49.166;8.076;2023-04-24T01:45:59;15.40;53.80
46366;DHT22;32073;49.166;8.076;2023-04-24T01:49:59;15.40;54.10
46366;DHT22;32073;49.166;8.076;2023-04-24T01:54:00;15.30;54.10
46366;DHT22;32073;49.166;8.076;2023-04-24T01:58:01;15.30;54.10
46366;DHT22;32073;49.166;8.076;2023-04-24T02:02:03;15.40;54.40
46366;DHT22;32073;49.166;8.076;2023-04-24T02:06:03;15.40;54.40
46366;DHT22;32073;49.166;8.076;2023-04-24T02:10:05;15.40;54.70
46366;DHT22;32073;49.166;8.076;2023-04-24T02:14:06;15.40;54.70
46366;DHT22;32073;49.166;8.076;2023-04-24T02:18:07;15.40;54.80
46366;DHT22;32073;49.166;8.076;2023-04-24T02:22:07;15.40;54.90
46366;DHT22;32073;49.166;8.076;2023-04-24T02:26:08;15.50;55.10
46366;DHT22;32073;49.166;8.076;2023-04-24T02:30:09;15.40;55.20
46366;DHT22;32073;49.166;8.076;2023-04-24T02:34:10;15.40;55.40
46366;DHT22;32073;49.166;8.076;2023-04-24T02:38:11;15.40;54.80
46366;DHT22;32073;49.166;8.076;2023-04-24T02:42:11;15.30;55.10
46366;DHT22;32073;49.166;8.076;2023-04-24T02:46:12;15.10;54.20
46366;DHT22;32073;49.166;8.076;2023-04-24T02:50:13;14.90;54.20
46366;DHT22;32073;49.166;8.076;2023-04-24T02:54:13;14.90;54.40
46366;DHT22;32073;49.166;8.076;2023-04-24T02:58:14;14.60;54.50
46366;DHT22;32073;49.166;8.076;2023-04-24T03:02:15;14.50;54.70
46366;DHT22;32073;49.166;8.076;2023-04-24T03:06:16;14.40;54.80
46366;DHT22;32073;49.166;8.076;2023-04-24T03:10:16;14.40;54.80
46366;DHT22;32073;49.166;8.076;2023-04-24T03:14:17;14.30;54.90
46366;DHT22;32073;49.166;8.076;2023-04-24T03:18:17;14.20;55.10
46366;DHT22;32073;49.166;8.076;2023-04-24T03:22:18;14.20;55.10
46366;DHT22;32073;49.166;8.076;2023-04-24T03:26:19;14.20;55.10
46366;DHT22;32073;49.166;8.076;2023-04-24T03:30:20;14.10;55.00
46366;DHT22;32073;49.166;8.076;2023-04-24T03:34:21;14.00;55.00
46366;DHT22;32073;49.166;8.076;2023-04-24T03:38:21;14.00;55.00
46366;DHT22;32073;49.166;8.076;2023-04-24T03:42:22;13.90;55.00
46366;DHT22;32073;49.166;8.076;2023-04-24T03:46:23;13.80;55.10
46366;DHT22;32073;49.166;8.076;2023-04-24T03:50:23;13.70;55.00
46366;DHT22;32073;49.166;8.076;2023-04-24T03:54:24;13.70;55.10
46366;DHT22;32073;49.166;8.076;2023-04-24T03:58:25;13.60;55.10
46366;DHT22;32073;49.166;8.076;2023-04-24T04:02:25;13.50;55.10
46366;DHT22;32073;49.166;8.076;2023-04-24T04:06:26;13.50;55.10
46366;DHT22;32073;49.166;8.076;2023-04-24T04:10:27;13.50;55.20
46366;DHT22;32073;49.166;8.076;2023-04-24T04:14:27;13.40;55.20
46366;DHT22;32073;49.166;8.076;2023-04-24T04:18:28;13.30;55.20
46366;DHT22;32073;49.166;8.076;2023-04-24T04:22:29;13.30;55.40
46366;DHT22;32073;49.166;8.076;2023-04-24T04:26:29;13.20;55.30
46366;DHT22;32073;49.166;8.076;2023-04-24T04:30:32;13.20;55.50
46366;DHT22;32073;49.166;8.076;2023-04-24T04:34:33;13.10;55.60
46366;DHT22;32073;49.166;8.076;2023-04-24T04:38:34;13.10;55.80
46366;DHT22;32073;49.166;8.076;2023-04-24T04:42:35;13.20;56.10
46366;DHT22;32073;49.166;8.076;2023-04-24T04:46:36;13.20;56.40
46366;DHT22;32073;49.166;8.076;2023-04-24T04:50:37;13.30;56.60
46366;DHT22;32073;49.166;8.076;2023-04-24T04:54:38;13.50;56.80
46366;DHT22;32073;49.166;8.076;2023-04-24T04:58:39;13.70;57.20
46366;DHT22;32073;49.166;8.076;2023-04-24T05:02:40;13.90;57.50
46366;DHT22;32073;49.166;8.076;2023-04-24T05:06:40;14.20;57.10
46366;DHT22;32073;49.166;8.076;2023-04-24T05:10:41;14.40;57.00
46366;DHT22;32073;49.166;8.076;2023-04-24T05:14:41;14.50;56.00
46366;DHT22;32073;49.166;8.076;2023-04-24T05:18:42;14.50;55.80
46366;DHT22;32073;49.166;8.076;2023-04-24T05:22:43;14.60;55.80
46366;DHT22;32073;49.166;8.076;2023-04-24T05:26:43;14.60;56.00
46366;DHT22;32073;49.166;8.076;2023-04-24T05:30:44;14.70;56.10
46366;DHT22;32073;49.166;8.076;2023-04-24T05:34:45;14.70;56.00
46366;DHT22;32073;49.166;8.076;2023-04-24T05:38:45;14.80;56.00
46366;DHT22;32073;49.166;8.076;2023-04-24T05:42:46;14.80;55.90
46366;DHT22;32073;49.166;8.076;2023-04-24T05:46:46;14.80;55.70
46366;DHT22;32073;49.166;8.076;2023-04-24T05:50:47;14.70;55.50
46366;DHT22;32073;49.166;8.076;2023-04-24T05:54:48;14.70;55.60
46366;DHT22;32073;49.166;8.076;2023-04-24T05:58:48;14.70;55.70
46366;DHT22;32073;49.166;8.076;2023-04-24T06:02:49;14.60;55.80
46366;DHT22;32073;49.166;8.076;2023-04-24T06:06:50;14.60;55.90
46366;DHT22;32073;49.166;8.076;2023-04-24T06:10:55;14.60;55.90
46366;DHT22;32073;49.166;8.076;2023-04-24T06:14:56;14.60;55.80
46366;DHT22;32073;49.166;8.076;2023-04-24T06:18:57;14.60;55.60
46366;DHT22;32073;49.166;8.076;2023-04-24T06:22:57;14.60;55.60
46366;DHT22;32073;49.166;8.076;2023-04-24T06:26:58;14.60;55.70
46366;DHT22;32073;49.166;8.076;2023-04-24T06:31:00;14.60;55.80
46366;DHT22;32073;49.166;8.076;2023-04-24T06:35:00;14.70;55.70
46366;DHT22;32073;49.166;8.076;2023-04-24T06:39:01;14.70;55.60
46366;DHT22;32073;49.166;8.076;2023-04-24T06:43:02;14.70;55.30
46366;DHT22;32073;49.166;8.076;2023-04-24T06:47:03;14.60;54.90
46366;DHT22;32073;49.166;8.076;2023-04-24T06:51:03;14.40;54.90
46366;DHT22;32073;49.166;8.076;2023-04-24T06:55:05;14.30;54.80
46366;DHT22;32073;49.166;8.076;2023-04-24T06:59:06;14.10;55.00
46366;DHT22;32073;49.166;8.076;2023-04-24T07:03:06;14.00;55.40
46366;DHT22;32073;49.166;8.076;2023-04-24T07:07:07;13.90;55.90
46366;DHT22;32073;49.166;8.076;2023-04-24T07:11:09;13.80;56.10
46366;DHT22;32073;49.166;8.076;2023-04-24T07:15:10;13.80;56.40
46366;DHT22;32073;49.166;8.076;2023-04-24T07:19:12;13.80;56.70
46366;DHT22;32073;49.166;8.076;2023-04-24T07:23:13;13.90;57.10
46366;DHT22;32073;49.166;8.076;2023-04-24T07:27:14;13.90;57.10
46366;DHT22;32073;49.166;8.076;2023-04-24T07:31:15;14.00;57.10
46366;DHT22;32073;49.166;8.076;2023-04-24T07:35:16;14.10;57.10
46366;DHT22;32073;49.166;8.076;2023-04-24T07:39:16;14.10;57.30
46366;DHT22;32073;49.166;8.076;2023-04-24T07:43:19;14.20;57.70
46366;DHT22;32073;49.166;8.076;2023-04-24T07:47:20;14.30;57.50
46366;DHT22;32073;49.166;8.076;2023-04-24T07:51:21;14.40;57.20
46366;DHT22;32073;49.166;8.076;2023-04-24T07:55:22;14.50;57.10
46366;DHT22;32073;49.166;8.076;2023-04-24T07:59:23;14.60;56.70
46366;DHT22;32073;49.166;8.076;2023-04-24T08:03:23;14.70;56.40
46366;DHT22;32073;49.166;8.076;2023-04-24T08:07:25;14.70;56.30
46366;DHT22;32073;49.166;8.076;2023-04-24T08:11:26;14.70;56.50
46366;DHT22;32073;49.166;8.076;2023-04-24T08:15:27;14.80;56.60
46366;DHT22;32073;49.166;8.076;2023-04-24T08:19:28;14.90;56.40
46366;DHT22;32073;49.166;8.076;2023-04-24T08:23:29;15.00;56.10
46366;DHT22;32073;49.166;8.076;2023-04-24T08:27:30;15.00;55.90
46366;DHT22;32073;49.166;8.076;2023-04-24T08:31:30;15.10;55.70
46366;DHT22;32073;49.166;8.076;2023-04-24T08:35:31;15.10;55.50
46366;DHT22;32073;49.166;8.076;2023-04-24T08:39:33;15.20;55.40
46366;DHT22;32073;49.166;8.076;2023-04-24T08:43:34;15.20;55.50
46366;DHT22;32073;49.166;8.076;2023-04-24T08:47:41;15.20;55.20
46366;DHT22;32073;49.166;8.076;2023-04-24T08:51:42;15.30;54.80
46366;DHT22;32073;49.166;8.076;2023-04-24T08:55:43;15.30;54.70
46366;DHT22;32073;49.166;8.076;2023-04-24T08:59:47;15.20;54.40
46366;DHT22;32073;49.166;8.076;2023-04-24T09:03:49;15.20;54.10
46366;DHT22;32073;49.166;8.076;2023-04-24T09:07:53;15.10;53.70
46366;DHT22;32073;49.166;8.076;2023-04-24T09:11:55;15.00;53.40
46366;DHT22;32073;49.166;8.076;2023-04-24T09:15:57;14.90;53.60
46366;DHT22;32073;49.166;8.076;2023-04-24T09:19:58;14.90;54.00
46366;DHT22;32073;49.166;8.076;2023-04-24T09:24:07;14.90;54.10
46366;DHT22;32073;49.166;8.076;2023-04-24T09:28:08;14.90;54.00
46366;DHT22;32073;49.166;8.076;2023-04-24T09:32:22;15.00;54.20
46366;DHT22;32073;49.166;8.076;2023-04-24T09:36:33;15.10;54.30
46366;DHT22;32073;49.166;8.076;2023-04-24T09:40:37;15.40;54.20
46366;DHT22;32073;49.166;8.076;2023-04-24T09:44:37;15.40;54.00
46366;DHT22;32073;49.166;8.076;2023-04-24T09:48:38;15.70;53.90
46366;DHT22;32073;49.166;8.076;2023-04-24T09:52:57;15.70;53.40
46366;DHT22;32073;49.166;8.076;2023-04-24T09:56:59;15.70;53.10
46366;DHT22;32073;49.166;8.076;2023-04-24T10:01:03;15.80;53.50
46366;DHT22;32073;49.166;8.076;2023-04-24T10:05:04;15.70;53.50
46366;DHT22;32073;49.166;8.076;2023-04-24T10:09:06;15.60;53.50
46366;DHT22;32073;49.166;8.076;2023-04-24T10:13:08;15.60;53.70
46366;DHT22;32073;49.166;8.076;2023-04-24T10:17:10;15.60;54.00
46366;DHT22;32073;49.166;8.076;2023-04-24T10:21:11;15.60;54.10
46366;DHT22;32073;49.166;8.076;2023-04-24T10:25:13;15.70;54.30
46366;DHT22;32073;49.166;8.076;2023-04-24T10:29:18;15.90;54.30
46366;DHT22;32073;49.166;8.076;2023-04-24T10:33:19;16.10;54.10
46366;DHT22;32073;49.166;8.076;2023-04-24T10:37:20;16.20;53.90
46366;DHT22;32073;49.166;8.076;2023-04-24T10:41:21;16.30;53.60
46366;DHT22;32073;49.166;8.076;2023-04-24T10:45:24;16.40;53.30
46366;DHT22;32073;49.166;8.076;2023-04-24T10:49:29;16.30;52.90
46366;DHT22;32073;49.166;8.076;2023-04-24T10:53:31;16.20;52.90
46366;DHT22;32073;49.166;8.076;2023-04-24T10:57:35;16.10;52.70
46366;DHT22;32073;49.166;8.076;2023-04-24T11:01:38;16.00;52.80
46366;DHT22;32073;49.166;8.076;2023-04-24T11:10:04;15.80;53.40
46366;DHT22;32073;49.166;8.076;2023-04-24T11:14:06;15.90;53.80
46366;DHT22;32073;49.166;8.076;2023-04-24T11:18:15;16.00;53.80
46366;DHT22;32073;49.166;8.076;2023-04-24T11:22:16;16.20;53.40
46366;DHT22;32073;49.166;8.076;2023-04-24T11:26:21;16.30;53.30
46366;DHT22;32073;49.166;8.076;2023-04-24T11:30:29;16.40;53.00
46366;DHT22;32073;49.166;8.076;2023-04-24T11:34:32;16.50;52.80
46366;DHT22;32073;49.166;8.076;2023-04-24T11:38:32;16.60;52.40
46366;DHT22;32073;49.166;8.076;2023-04-24T11:42:41;16.70;52.30
46366;DHT22;32073;49.166;8.076;2023-04-24T11:46:42;16.80;51.70
46366;DHT22;32073;49.166;8.076;2023-04-24T11:50:46;16.80;51.30
46366;DHT22;32073;49.166;8.076;2023-04-24T11:54:49;16.70;50.90
46366;DHT22;32073;49.166;8.076;2023-04-24T11:58:53;16.80;50.90
46366;DHT22;32073;49.166;8.076;2023-04-24T12:03:09;16.70;50.30
46366;DHT22;32073;49.166;8.076;2023-04-24T12:07:11;16.60;50.40
46366;DHT22;32073;49.166;8.076;2023-04-24T12:11:15;16.60;50.60
46366;DHT22;32073;49.166;8.076;2023-04-24T12:15:21;16.50;50.80
46366;DHT22;32073;49.166;8.076;2023-04-24T12:19:23;16.60;50.80
46366;DHT22;32073;49.166;8.076;2023-04-24T12:23:34;16.70;50.60
46366;DHT22;32073;49.166;8.076;2023-04-24T12:27:38;16.80;50.70
46366;DHT22;32073;49.166;8.076;2023-04-24T12:31:39;16.80;50.90
46366;DHT22;32073;49.166;8.076;2023-04-24T12:35:40;17.00;50.90
46366;DHT22;32073;49.166;8.076;2023-04-24T12:39:58;17.20;50.40
46366;DHT22;32073;49.166;8.076;2023-04-24T12:44:01;17.30;49.80
46366;DHT22;32073;49.166;8.076;2023-04-24T12:48:01;17.40;49.60
46366;DHT22;32073;49.166;8.076;2023-04-24T12:52:02;17.40;49.70
46366;DHT22;32073;49.166;8.076;2023-04-24T12:56:03;17.50;49.40
46366;DHT22;32073;49.166;8.076;2023-04-24T13:00:04;17.50;48.80
46366;DHT22;32073;49.166;8.076;2023-04-24T13:04:06;17.50;48.90
46366;DHT22;32073;49.166;8.076;2023-04-24T13:08:07;17.60;48.60
46366;DHT22;32073;49.166;8.076;2023-04-24T13:12:08;17.60;48.80
46366;DHT22;32073;49.166;8.076;2023-04-24T13:16:09;17.70;48.70
46366;DHT22;32073;49.166;8.076;2023-04-24T13:20:10;17.70;48.60
46366;DHT22;32073;49.166;8.076;2023-04-24T13:24:11;17.80;48.50
46366;DHT22;32073;49.166;8.076;2023-04-24T13:28:13;17.80;48.10
46366;DHT22;32073;49.166;8.076;2023-04-24T13:32:14;17.80;48.00
46366;DHT22;32073;49.166;8.076;2023-04-24T13:36:15;17.80;47.80
46366;DHT22;32073;49.166;8.076;2023-04-24T13:40:17;17.80;47.50
46366;DHT22;32073;49.166;8.076;2023-04-24T13:44:19;17.80;47.40
46366;DHT22;32073;49.166;8.076;2023-04-24T13:48:21;17.70;47.70
46366;DHT22;32073;49.166;8.076;2023-04-24T13:52:21;17.60;47.80
46366;DHT22;32073;49.166;8.076;2023-04-24T13:56:22;17.70;47.30
46366;DHT22;32073;49.166;8.076;2023-04-24T14:00:23;17.70;47.10
46366;DHT22;32073;49.166;8.076;2023-04-24T14:04:23;17.70;47.50
46366;DHT22;32073;49.166;8.076;2023-04-24T14:08:24;17.70;47.50
46366;DHT22;32073;49.166;8.076;2023-04-24T14:12:25;17.70;47.30
46366;DHT22;32073;49.166;8.076;2023-04-24T14:16:26;17.70;47.30
46366;DHT22;32073;49.166;8.076;2023-04-24T14:20:27;17.70;46.90
46366;DHT22;32073;49.166;8.076;2023-04-24T14:24:27;17.60;46.90
46366;DHT22;32073;49.166;8.076;2023-04-24T14:28:28;17.60;47.00
46366;DHT22;32073;49.166;8.076;2023-04-24T14:32:28;17.60;47.30
46366;DHT22;32073;49.166;8.076;2023-04-24T14:36:29;17.50;46.80
46366;DHT22;32073;49.166;8.076;2023-04-24T14:40:30;17.50;47.00
46366;DHT22;32073;49.166;8.076;2023-04-24T14:44:32;17.50;47.30
46366;DHT22;32073;49.166;8.076;2023-04-24T14:48:34;17.50;47.50
46366;DHT22;32073;49.166;8.076;2023-04-24T14:52:34;17.50;48.00
46366;DHT22;32073;49.166;8.076;2023-04-24T14:56:36;17.70;47.10
46366;DHT22;32073;49.166;8.076;2023-04-24T15:00:36;17.80;46.60
46366;DHT22;32073;49.166;8.076;2023-04-24T15:04:37;17.80;46.70
46366;DHT22;32073;49.166;8.076;2023-04-24T15:08:38;17.80;47.00
46366;DHT22;32073;49.166;8.076;2023-04-24T15:12:38;17.70;46.90
46366;DHT22;32073;49.166;8.076;2023-04-24T15:16:39;17.70;47.20
46366;DHT22;32073;49.166;8.076;2023-04-24T15:20:40;17.60;48.00
46366;DHT22;32073;49.166;8.076;2023-04-24T15:24:41;17.40;47.90
46366;DHT22;32073;49.166;8.076;2023-04-24T15:28:42;17.20;47.90
46366;DHT22;32073;49.166;8.076;2023-04-24T15:32:43;17.10;48.20
46366;DHT22;32073;49.166;8.076;2023-04-24T15:36:43;17.00;48.40
46366;DHT22;32073;49.166;8.076;2023-04-24T15:40:44;17.00;48.60
46366;DHT22;32073;49.166;8.076;2023-04-24T15:44:45;17.00;48.60
46366;DHT22;32073;49.166;8.076;2023-04-24T15:48:45;17.10;48.50
46366;DHT22;32073;49.166;8.076;2023-04-24T15:52:46;17.10;48.30
46366;DHT22;32073;49.166;8.076;2023-04-24T15:56:46;17.20;48.20
46366;DHT22;32073;49.166;8.076;2023-04-24T16:00:50;17.20;48.10
46366;DHT22;32073;49.166;8.076;2023-04-24T16:04:50;17.20;48.10
46366;DHT22;32073;49.166;8.076;2023-04-24T16:08:52;17.20;47.90
46366;DHT22;32073;49.166;8.076;2023-04-24T16:12:53;17.20;48.00
46366;DHT22;32073;49.166;8.076;2023-04-24T16:16:56;17.20;47.90
46366;DHT22;32073;49.166;8.076;2023-04-24T16:20:57;17.20;47.90
46366;DHT22;32073;49.166;8.076;2023-04-24T16:24:57;17.20;48.00
46366;DHT22;32073;49.166;8.076;2023-04-24T16:28:58;17.20;48.40
46366;DHT22;32073;49.166;8.076;2023-04-24T16:32:59;17.10;48.90
46366;DHT22;32073;49.166;8.076;2023-04-24T16:36:59;16.90;49.00
46366;DHT22;32073;49.166;8.076;2023-04-24T16:41:00;16.70;49.20
46366;DHT22;32073;49.166;8.076;2023-04-24T16:45:01;16.60;49.60
46366;DHT22;32073;49.166;8.076;2023-04-24T16:49:02;16.50;49.80
46366;DHT22;32073;49.166;8.076;2023-04-24T16:53:03;16.50;49.90
46366;DHT22;32073;49.166;8.076;2023-04-24T16:57:03;16.40;49.80
46366;DHT22;32073;49.166;8.076;2023-04-24T17:01:04;16.30;49.80
46366;DHT22;32073;49.166;8.076;2023-04-24T17:05:05;16.30;49.90
46366;DHT22;32073;49.166;8.076;2023-04-24T17:09:06;16.20;49.90
46366;DHT22;32073;49.166;8.076;2023-04-24T17:13:07;16.10;49.80
46366;DHT22;32073;49.166;8.076;2023-04-24T17:17:09;16.00;50.00
46366;DHT22;32073;49.166;8.076;2023-04-24T17:21:09;15.90;50.20
46366;DHT22;32073;49.166;8.076;2023-04-24T17:25:10;15.80;50.30
46366;DHT22;32073;49.166;8.076;2023-04-24T17:29:11;15.70;50.30
46366;DHT22;32073;49.166;8.076;2023-04-24T17:33:11;15.60;50.20
46366;DHT22;32073;49.166;8.076;2023-04-24T17:37:12;15.70;50.50
46366;DHT22;32073;49.166;8.076;2023-04-24T17:41:13;15.50;50.60
46366;DHT22;32073;49.166;8.076;2023-04-24T17:45:16;15.50;50.80
46366;DHT22;32073;49.166;8.076;2023-04-24T17:49:16;15.40;50.90
46366;DHT22;32073;49.166;8.076;2023-04-24T17:53:17;15.40;51.00
46366;DHT22;32073;49.166;8.076;2023-04-24T17:57:22;15.40;51.10
46366;DHT22;32073;49.166;8.076;2023-04-24T18:01:22;15.40;51.10
46366;DHT22;32073;49.166;8.076;2023-04-24T18:05:23;15.30;50.90
46366;DHT22;32073;49.166;8.076;2023-04-24T18:09:24;15.20;50.90
46366;DHT22;32073;49.166;8.076;2023-04-24T18:13:25;15.20;51.00
46366;DHT22;32073;49.166;8.076;2023-04-24T18:17:26;15.00;51.40
46366;DHT22;32073;49.166;8.076;2023-04-24T18:21:26;14.80;51.30
46366;DHT22;32073;49.166;8.076;2023-04-24T18:25:27;14.80;51.50
46366;DHT22;32073;49.166;8.076;2023-04-24T18:29:28;14.70;51.60
46366;DHT22;32073;49.166;8.076;2023-04-24T18:33:29;14.70;51.70
46366;DHT22;32073;49.166;8.076;2023-04-24T18:37:30;14.60;51.80
46366;DHT22;32073;49.166;8.076;2023-04-24T18:41:32;14.50;51.90
46366;DHT22;32073;49.166;8.076;2023-04-24T18:45:34;14.50;52.10
46366;DHT22;32073;49.166;8.076;2023-04-24T18:49:35;14.50;52.40
46366;DHT22;32073;49.166;8.076;2023-04-24T18:53:36;14.50;52.40
46366;DHT22;32073;49.166;8.076;2023-04-24T18:57:37;14.50;52.40
46366;DHT22;32073;49.166;8.076;2023-04-24T19:01:37;14.50;52.60
46366;DHT22;32073;49.166;8.076;2023-04-24T19:05:38;14.40;52.70
46366;DHT22;32073;49.166;8.076;2023-04-24T19:09:39;14.40;52.80
46366;DHT22;32073;49.166;8.076;2023-04-24T19:13:40;14.30;52.90
46366;DHT22;32073;49.166;8.076;2023-04-24T19:17:41;14.30;53.00
46366;DHT22;32073;49.166;8.076;2023-04-24T19:21:41;14.30;53.10
46366;DHT22;32073;49.166;8.076;2023-04-24T19:25:43;14.30;53.20
46366;DHT22;32073;49.166;8.076;2023-04-24T19:29:43;14.30;53.20
46366;DHT22;32073;49.166;8.076;2023-04-24T19:33:44;14.40;53.10
46366;DHT22;32073;49.166;8.076;2023-04-24T19:37:47;14.30;53.10
46366;DHT22;32073;49.166;8.076;2023-04-24T19:41:48;14.30;53.20
46366;DHT22;32073;49.166;8.076;2023-04-24T19:45:49;14.20;53.30
46366;DHT22;32073;49.166;8.076;2023-04-24T19:49:50;14.20;53.60
46366;DHT22;32073;49.166;8.076;2023-04-24T19:53:50;14.10;53.60
46366;DHT22;32073;49.166;8.076;2023-04-24T19:57:51;14.10;53.60
46366;DHT22;32073;49.166;8.076;2023-04-24T20:01:52;14.00;53.70
46366;DHT22;32073;49.166;8.076;2023-04-24T20:05:54;14.00;53.90
46366;DHT22;32073;49.166;8.076;2023-04-24T20:09:56;13.90;54.00
46366;DHT22;32073;49.166;8.076;2023-04-24T20:13:58;13.90;54.20
46366;DHT22;32073;49.166;8.076;2023-04-24T20:18:00;13.90;54.30
46366;DHT22;32073;49.166;8.076;2023-04-24T20:22:01;13.90;54.50
46366;DHT22;32073;49.166;8.076;2023-04-24T20:26:02;13.90;54.70
46366;DHT22;32073;49.166;8.076;2023-04-24T20:30:04;14.00;54.80
46366;DHT22;32073;49.166;8.076;2023-04-24T20:34:06;14.00;54.70
46366;DHT22;32073;49.166;8.076;2023-04-24T20:38:07;14.00;54.70
46366;DHT22;32073;49.166;8.076;2023-04-24T20:42:10;14.10;54.90
46366;DHT22;32073;49.166;8.076;2023-04-24T20:46:11;14.10;54.90
46366;DHT22;32073;49.166;8.076;2023-04-24T20:50:12;14.10;55.00
46366;DHT22;32073;49.166;8.076;2023-04-24T20:54:13;14.10;55.10
46366;DHT22;32073;49.166;8.076;2023-04-24T20:58:15;14.20;54.90
46366;DHT22;32073;49.166;8.076;2023-04-24T21:02:17;14.20;54.90
46366;DHT22;32073;49.166;8.076;2023-04-24T21:06:18;14.20;54.70
46366;DHT22;32073;49.166;8.076;2023-04-24T21:10:19;14.10;54.80
46366;DHT22;32073;49.166;8.076;2023-04-24T21:14:20;14.10;54.70
46366;DHT22;32073;49.166;8.076;2023-04-24T21:18:21;14.00;54.50
46366;DHT22;32073;49.166;8.076;2023-04-24T21:22:21;14.00;54.60
46366;DHT22;32073;49.166;8.076;2023-04-24T21:26:22;13.90;54.70
46366;DHT22;32073;49.166;8.076;2023-04-24T21:30:23;13.80;54.90
46366;DHT22;32073;49.166;8.076;2023-04-24T21:34:24;13.80;55.00
46366;DHT22;32073;49.166;8.076;2023-04-24T21:38:25;13.80;55.10
46366;DHT22;32073;49.166;8.076;2023-04-24T21:42:25;13.70;55.00
46366;DHT22;32073;49.166;8.076;2023-04-24T21:46:26;13.70;55.60
46366;DHT22;32073;49.166;8.076;2023-04-24T21:50:27;13.60;54.90
46366;DHT22;32073;49.166;8.076;2023-04-24T21:54:27;13.60;55.00
46366;DHT22;32073;49.166;8.076;2023-04-24T21:58:28;13.50;55.10
46366;DHT22;32073;49.166;8.076;2023-04-24T22:02:28;13.40;55.20
46366;DHT22;32073;49.166;8.076;2023-04-24T22:06:30;13.40;55.20
46366;DHT22;32073;49.166;8.076;2023-04-24T22:10:31;13.40;55.30
46366;DHT22;32073;49.166;8.076;2023-04-24T22:14:32;13.40;55.40
46366;DHT22;32073;49.166;8.076;2023-04-24T22:18:33;13.40;55.50
46366;DHT22;32073;49.166;8.076;2023-04-24T22:22:34;13.30;55.60
46366;DHT22;32073;49.166;8.076;2023-04-24T22:26:35;13.40;55.60
46366;DHT22;32073;49.166;8.076;2023-04-24T22:30:36;13.40;55.30
46366;DHT22;32073;49.166;8.076;2023-04-24T22:34:37;13.40;55.10
46366;DHT22;32073;49.166;8.076;2023-04-24T22:38:37;13.30;55.10
46366;DHT22;32073;49.166;8.076;2023-04-24T22:42:38;13.30;55.20
46366;DHT22;32073;49.166;8.076;2023-04-24T22:46:39;13.30;55.30
46366;DHT22;32073;49.166;8.076;2023-04-24T22:50:39;13.30;55.50
46366;DHT22;32073;49.166;8.076;2023-04-24T22:54:41;13.30;55.60
46366;DHT22;32073;49.166;8.076;2023-04-24T22:58:42;13.30;55.50
46366;DHT22;32073;49.166;8.076;2023-04-24T23:02:42;13.30;55.50
46366;DHT22;32073;49.166;8.076;2023-04-24T23:06:43;13.40;55.50
46366;DHT22;32073;49.166;8.076;2023-04-24T23:10:44;13.40;55.50
46366;DHT22;32073;49.166;8.076;2023-04-24T23:14:45;13.40;55.40
46366;DHT22;32073;49.166;8.076;2023-04-24T23:18:46;13.40;55.50
46366;DHT22;32073;49.166;8.076;2023-04-24T23:22:47;13.40;55.50
46366;DHT22;32073;49.166;8.076;2023-04-24T23:26:47;13.40;55.40
46366;DHT22;32073;49.166;8.076;2023-04-24T23:30:48;13.40;55.30
46366;DHT22;32073;49.166;8.076;2023-04-24T23:34:48;13.40;55.30
46366;DHT22;32073;49.166;8.076;2023-04-24T23:38:50;13.40;55.40
46366;DHT22;32073;49.166;8.076;2023-04-24T23:42:50;13.30;55.40
46366;DHT22;32073;49.166;8.076;2023-04-24T23:46:51;13.30;55.60
46366;DHT22;32073;49.166;8.076;2023-04-24T23:50:52;13.30;55.50
46366;DHT22;32073;49.166;8.076;2023-04-24T23:54:53;13.40;55.60
46366;DHT22;32073;49.166;8.076;2023-04-24T23:58:54;13.30;55.50
